Bentonville, OH (45105)

3:09 PM EDT on September 01, 2015 (GMT -0400)
Manchester Local Schools | | Change Station
CLOSE
Current Station
Personal Weather Station
Location: Manchester, OH
Elevation: 541 ft
Nearby Weather Stations

Elev 541 ft 38.69 °N, 83.59 °W | Updated 1 second ago

Partly Cloudy
Partly Cloudy
92.3 °F
Feels Like 94 °F
N
1.1
Wind Variable Wind from NNE
Gusts 2.5 mph

Today
High -- | Low -- °F
--% Chance of Precip.
Yesterday
High -- | Low -- °F
Precip. -- in
7:03 AM 8:05 PM
Waning Gibbous, 87% visible
Pressure 30.12 in
Visibility 10.0 miles
Clouds Mostly Cloudy 4700 ft
Mostly Cloudy 7500 ft
Overcast 11000 ft
Heat Index 94 °F
Dew Point 65 °F
Humidity 40%
Rainfall 0.00 in
Snow Depth Not available.
UV 5.0 out of 12
Pollen 10.60 out of 12
Air Quality Not available.
Flu Activity Not available.
METAR KI69 011854Z AUTO 25007KT 10SM BKN047 BKN075 OVC110 31/18 A3012 RMK AO2 T03060176
Pressure 30.12 in
Visibility 10.0 miles
Clouds Mostly Cloudy 4700 ft
Mostly Cloudy 7500 ft
Overcast 11000 ft
Heat Index 94 °F
Dew Point 65 °F
Humidity 40%
Rainfall 0.00 in
Snow Depth Not available.
UV 5.0 out of 12
Pollen 10.60 out of 12
Air Quality Not available.
Flu Activity Not available.
METAR KI69 011854Z AUTO 25007KT 10SM BKN047 BKN075 OVC110 31/18 A3012 RMK AO2 T03060176

10-Day Weather Forecast

×

Almanac

Astronomy

Sep. 01, 2015 Rise Set
Actual Time
Civil Twilight
Nautical Twilight
Astronomical Twilight
Moon
Length of Visible Light
Length of Day
Tomorrow will be .
, % of the Moon is Illuminated

Today's Extremes

State Highs State Lows

Community

WunderPhotos

Upload Photos

1,851,596 photos uploaded!

WunderBlogs® & News

Nearby

Air Quality

  Air Quality AQ Index Pollutant
Not available.

Snow Depth

Station Depth Elevation

Earthquake Activity

City Distance Mag. Time & Date
Minimum magnitude displayed is 2.5.

Coastal Water Temperatures

Place Temperature

Stations

Nearby Weather Stations

Station Location Temp. Windchill Dew Point Humidity Wind Precip. Elev Updated Type